createdAt,value
2018-08-19T00:02:24.317Z,78.10
2018-08-19T00:05:06.583Z,77.10
2018-08-19T00:07:35.791Z,78.10
2018-08-19T00:10:06.033Z,78.30
2018-08-19T00:12:39.274Z,78.40
2018-08-19T00:15:08.382Z,78.00
2018-08-19T00:17:37.454Z,78.60
2018-08-19T00:20:08.753Z,78.60
2018-08-19T00:22:37.807Z,78.60
2018-08-19T00:25:06.997Z,78.00
2018-08-19T00:27:38.122Z,78.00
2018-08-19T00:30:08.985Z,78.40
2018-08-19T00:32:38.111Z,78.70
2018-08-19T00:35:07.294Z,78.90
2018-08-19T00:37:36.360Z,78.80
2018-08-19T00:40:12.654Z,78.70
2018-08-19T00:42:43.714Z,79.10
2018-08-19T00:45:12.982Z,79.20
2018-08-19T00:47:42.141Z,79.30
2018-08-19T00:50:11.245Z,79.60
2018-08-19T00:52:40.616Z,79.70
2018-08-19T00:55:10.082Z,80.10
2018-08-19T00:57:40.621Z,80.30
2018-08-19T01:00:09.733Z,79.70
2018-08-19T01:02:38.865Z,79.80
2018-08-19T01:05:07.978Z,80.90
2018-08-19T01:07:37.080Z,80.60
2018-08-19T01:10:06.062Z,80.70
2018-08-19T01:12:35.233Z,80.60
2018-08-19T01:15:04.722Z,80.70
2018-08-19T01:17:49.077Z,80.50
2018-08-19T01:20:21.407Z,80.80
2018-08-19T01:22:50.595Z,80.40
2018-08-19T01:25:19.723Z,80.20
2018-08-19T01:27:48.939Z,80.70
2018-08-19T01:30:21.351Z,80.90
2018-08-19T01:32:50.483Z,81.20
2018-08-19T01:35:26.762Z,81.60
2018-08-19T01:37:55.863Z,81.60
2018-08-19T01:40:24.982Z,81.70
2018-08-19T01:42:54.022Z,81.70
2018-08-19T01:45:23.127Z,82.00
2018-08-19T01:47:52.200Z,82.40
2018-08-19T01:50:21.369Z,82.10
2018-08-19T01:52:50.937Z,81.30
2018-08-19T01:55:20.240Z,81.10
2018-08-19T01:57:50.642Z,81.70
2018-08-19T02:00:19.914Z,82.30
2018-08-19T02:02:58.273Z,82.70
2018-08-19T02:05:27.443Z,82.90
2018-08-19T02:07:58.550Z,83.00
2018-08-19T02:10:28.897Z,82.70
2018-08-19T02:12:58.602Z,82.40
2018-08-19T02:15:28.822Z,82.00
2018-08-19T02:18:01.967Z,82.60
2018-08-19T02:20:36.040Z,82.80
2018-08-19T02:23:06.559Z,82.80
2018-08-19T02:25:45.904Z,82.70
2018-08-19T02:28:17.801Z,83.60
2018-08-19T02:31:02.634Z,84.40
2018-08-19T02:33:35.111Z,84.10
2018-08-19T02:36:08.305Z,83.70
2018-08-19T02:38:38.461Z,83.60
2018-08-19T02:41:07.727Z,83.90
2018-08-19T02:43:44.863Z,84.20
2018-08-19T02:46:18.549Z,84.70
2018-08-19T02:48:57.057Z,84.70
2018-08-19T02:51:29.697Z,84.50
2018-08-19T02:53:58.946Z,84.50
2018-08-19T02:56:28.140Z,84.60
2018-08-19T02:58:57.271Z,85.30
2018-08-19T03:01:26.441Z,85.00
2018-08-19T03:03:55.581Z,84.50
2018-08-19T03:06:24.650Z,84.50
2018-08-19T03:09:00.361Z,84.90
2018-08-19T03:11:29.434Z,85.30
2018-08-19T03:13:58.545Z,85.10
2018-08-19T03:16:27.518Z,85.40
2018-08-19T03:18:56.707Z,85.70
2018-08-19T03:21:25.877Z,86.00
2018-08-19T03:23:55.030Z,86.50
2018-08-19T03:26:24.142Z,86.90
2018-08-19T03:28:53.267Z,86.80
2018-08-19T03:31:22.396Z,87.00
2018-08-19T03:33:51.531Z,86.70
2018-08-19T03:36:20.643Z,86.90
2018-08-19T03:38:49.667Z,87.50
2018-08-19T03:41:18.833Z,87.50
2018-08-19T03:44:00.484Z,87.50
2018-08-19T03:46:29.874Z,87.70
2018-08-19T03:48:58.924Z,87.70
2018-08-19T03:51:28.138Z,87.30
2018-08-19T03:53:57.284Z,87.10
2018-08-19T03:56:26.382Z,87.80
2018-08-19T03:59:00.313Z,87.80
2018-08-19T04:01:36.923Z,88.10
2018-08-19T04:04:06.156Z,88.70
2018-08-19T04:06:35.961Z,88.30
2018-08-19T04:09:05.894Z,88.30
2018-08-19T04:11:35.119Z,89.10
2018-08-19T04:14:05.383Z,89.10
2018-08-19T04:16:34.433Z,88.80
2018-08-19T04:19:08.264Z,88.50
2018-08-19T04:21:37.589Z,88.40
2018-08-19T04:24:06.704Z,88.40
2018-08-19T04:26:35.881Z,88.40
2018-08-19T04:29:09.430Z,89.10
2018-08-19T04:31:38.528Z,88.40
2018-08-19T04:34:07.723Z,88.50
2018-08-19T04:36:36.800Z,89.20
2018-08-19T04:39:06.163Z,88.30
2018-08-19T04:41:35.211Z,88.50
2018-08-19T04:44:04.455Z,88.50
2018-08-19T04:46:33.540Z,88.40
2018-08-19T04:49:02.722Z,88.40
2018-08-19T04:51:33.598Z,88.20
2018-08-19T04:54:03.831Z,88.20
2018-08-19T04:56:33.057Z,87.50
2018-08-19T04:59:02.502Z,87.50
2018-08-19T05:01:31.594Z,87.50
2018-08-19T05:04:00.664Z,87.00
2018-08-19T05:06:29.660Z,87.30
2018-08-19T05:08:58.753Z,86.60
2018-08-19T05:11:27.803Z,86.90
2018-08-19T05:13:58.525Z,87.00
2018-08-19T05:16:27.611Z,87.60
2018-08-19T05:19:01.864Z,87.60
2018-08-19T05:21:30.930Z,87.20
2018-08-19T05:24:00.000Z,86.30
2018-08-19T05:26:29.057Z,87.20
2018-08-19T05:29:07.085Z,86.80
2018-08-19T05:31:45.323Z,86.80
2018-08-19T05:34:47.818Z,86.90
2018-08-19T05:37:17.042Z,86.90
2018-08-19T05:39:51.250Z,86.70
2018-08-19T05:42:20.362Z,86.60
2018-08-19T05:44:49.460Z,86.60
2018-08-19T05:47:18.596Z,86.40
2018-08-19T05:49:48.758Z,86.40
2018-08-19T05:52:22.979Z,86.00
2018-08-19T05:54:58.282Z,86.20
2018-08-19T05:57:28.882Z,86.40
2018-08-19T05:59:58.048Z,86.60
2018-08-19T06:02:33.103Z,86.50
2018-08-19T06:05:03.805Z,86.40
2018-08-19T06:07:33.077Z,86.50
2018-08-19T06:10:02.430Z,86.60
2018-08-19T06:12:31.821Z,87.00
2018-08-19T06:15:05.732Z,86.50
2018-08-19T06:17:41.208Z,86.30
2018-08-19T06:20:10.699Z,86.40
2018-08-19T06:22:40.049Z,86.30
2018-08-19T06:25:15.177Z,86.00
2018-08-19T06:27:47.084Z,86.00
2018-08-19T06:30:17.189Z,86.10
2018-08-19T06:32:46.411Z,86.90
2018-08-19T06:35:15.701Z,86.00
2018-08-19T06:37:46.063Z,85.80
2018-08-19T06:40:20.023Z,86.10
2018-08-19T06:42:49.135Z,85.40
2018-08-19T06:45:18.290Z,85.60
2018-08-19T06:47:47.453Z,85.30
2018-08-19T06:50:26.115Z,84.90
2018-08-19T06:52:55.696Z,84.80
2018-08-19T06:55:24.711Z,84.70
2018-08-19T06:57:55.189Z,84.00
2018-08-19T07:00:27.425Z,83.10
2018-08-19T07:02:58.121Z,82.70
2018-08-19T07:05:27.411Z,81.30
2018-08-19T07:07:56.485Z,80.80
2018-08-19T07:10:31.946Z,79.70
2018-08-19T07:13:06.317Z,78.80
2018-08-19T07:15:36.734Z,77.60
2018-08-19T07:18:13.832Z,76.20
2018-08-19T07:20:43.706Z,75.70
2018-08-19T07:23:13.197Z,74.70
2018-08-19T07:25:43.515Z,73.00
2018-08-19T07:28:13.710Z,72.70
2018-08-19T07:30:43.147Z,71.40
2018-08-19T07:33:13.217Z,70.40
2018-08-19T07:35:42.263Z,69.10
2018-08-19T07:38:11.426Z,67.50
2018-08-19T07:40:40.526Z,66.60
2018-08-19T07:43:09.744Z,66.30
2018-08-19T07:45:38.879Z,64.60
2018-08-19T07:48:08.316Z,63.80
2018-08-19T07:50:37.378Z,63.00
2018-08-19T07:53:06.478Z,61.50
2018-08-19T07:55:35.476Z,61.30
2018-08-19T07:58:04.624Z,60.50
2018-08-19T08:00:40.615Z,59.60
2018-08-19T08:03:10.039Z,58.50
2018-08-19T08:05:44.127Z,58.70
2018-08-19T08:08:13.212Z,58.00
2018-08-19T08:10:42.328Z,57.50
2018-08-19T08:13:12.711Z,56.30
2018-08-19T08:15:49.805Z,56.00
2018-08-19T08:18:19.026Z,54.10
2018-08-19T08:20:48.207Z,53.50
2018-08-19T08:23:25.337Z,51.60
2018-08-19T08:25:54.519Z,50.90
2018-08-19T08:28:23.725Z,50.80
2018-08-19T08:30:52.755Z,49.70
2018-08-19T08:33:22.051Z,48.70
2018-08-19T08:35:58.256Z,47.10
2018-08-19T08:38:27.411Z,46.10
2018-08-19T08:40:56.531Z,45.80
2018-08-19T08:43:25.574Z,43.00
2018-08-19T08:45:57.208Z,43.80
2018-08-19T08:48:26.591Z,41.70
2018-08-19T08:50:55.819Z,42.70
2018-08-19T08:53:32.189Z,42.60
2018-08-19T08:56:01.275Z,42.60
2018-08-19T08:58:30.481Z,40.40
2018-08-19T09:00:59.628Z,41.10
2018-08-19T09:03:28.812Z,40.20
2018-08-19T09:05:58.083Z,41.00
2018-08-19T09:08:27.444Z,40.20
2018-08-19T09:10:58.209Z,35.90
2018-08-19T09:13:27.286Z,37.00
2018-08-19T09:15:56.329Z,36.10
2018-08-19T09:18:25.392Z,37.50
2018-08-19T09:20:54.481Z,38.20
2018-08-19T09:23:23.755Z,34.70
2018-08-19T09:25:52.659Z,35.10
2018-08-19T09:28:21.822Z,36.30
2018-08-19T09:30:50.941Z,35.30
2018-08-19T09:33:20.266Z,35.90
2018-08-19T09:35:49.408Z,36.10
2018-08-19T09:38:20.742Z,37.30
2018-08-19T09:40:49.962Z,34.00
2018-08-19T09:43:19.393Z,33.00
2018-08-19T09:45:49.745Z,32.60
2018-08-19T09:48:19.325Z,35.80
2018-08-19T09:50:48.554Z,35.50
2018-08-19T09:53:17.819Z,32.00
2018-08-19T09:55:53.096Z,33.40
2018-08-19T09:58:23.098Z,32.10
2018-08-19T10:00:57.446Z,34.80
2018-08-19T10:03:26.662Z,33.60
2018-08-19T10:05:55.845Z,34.10
2018-08-19T10:08:25.096Z,30.50
2018-08-19T10:10:54.161Z,30.90
2018-08-19T10:13:23.314Z,29.80
2018-08-19T10:15:52.384Z,30.80
2018-08-19T10:18:21.380Z,30.00
2018-08-19T10:20:50.408Z,31.60
2018-08-19T10:23:19.687Z,30.30
2018-08-19T10:25:48.727Z,29.50
2018-08-19T10:28:17.822Z,30.20
2018-08-19T10:30:56.032Z,30.90
2018-08-19T10:33:25.054Z,31.40
2018-08-19T10:35:54.686Z,30.10
2018-08-19T10:38:23.623Z,29.80
2018-08-19T10:40:57.636Z,30.00
2018-08-19T10:43:29.091Z,30.20
2018-08-19T10:45:58.176Z,28.40
2018-08-19T10:48:27.165Z,30.50
2018-08-19T10:50:56.314Z,29.20
2018-08-19T10:53:27.743Z,28.00
2018-08-19T10:56:01.900Z,27.70
2018-08-19T10:58:31.031Z,28.10
2018-08-19T11:01:00.136Z,29.20
2018-08-19T11:03:30.768Z,28.20
2018-08-19T11:05:59.856Z,28.10
2018-08-19T11:08:29.006Z,28.40
2018-08-19T11:11:00.285Z,27.70
2018-08-19T11:13:29.605Z,28.60
2018-08-19T11:15:59.346Z,28.20
2018-08-19T11:18:34.705Z,27.70
2018-08-19T11:22:06.905Z,28.00
2018-08-19T11:24:38.659Z,28.50
2018-08-19T11:27:08.036Z,27.50
2018-08-19T11:29:39.218Z,27.00
2018-08-19T11:32:08.654Z,27.60
2018-08-19T11:34:37.749Z,29.00
2018-08-19T11:37:06.829Z,27.50
2018-08-19T11:39:41.202Z,27.90
2018-08-19T11:42:10.363Z,27.10
2018-08-19T11:44:39.493Z,27.90
2018-08-19T11:47:08.615Z,28.00
2018-08-19T11:49:37.600Z,27.90
2018-08-19T11:52:06.737Z,27.10
2018-08-19T11:54:35.862Z,26.90
2018-08-19T11:57:11.505Z,27.80
2018-08-19T11:59:43.707Z,26.70
2018-08-19T12:02:19.244Z,26.40
2018-08-19T12:04:48.547Z,27.70
2018-08-19T12:07:18.109Z,27.40
2018-08-19T12:09:53.743Z,26.80
2018-08-19T12:12:36.656Z,26.10
2018-08-19T12:15:06.045Z,27.00
2018-08-19T12:17:35.153Z,26.70
2018-08-19T12:20:04.339Z,27.40
2018-08-19T12:22:33.400Z,26.90
2018-08-19T12:25:02.551Z,26.90
2018-08-19T12:27:38.617Z,25.10
2018-08-19T12:30:14.421Z,25.30
2018-08-19T12:32:43.651Z,25.30
2018-08-19T12:35:12.699Z,26.60
2018-08-19T12:37:41.843Z,26.20
2018-08-19T12:40:10.895Z,26.60
2018-08-19T12:42:45.154Z,26.10
2018-08-19T12:45:14.260Z,25.30
2018-08-19T12:47:44.423Z,25.60
2018-08-19T12:50:16.112Z,25.50
2018-08-19T12:52:45.118Z,26.00
2018-08-19T12:55:16.774Z,26.20
2018-08-19T12:57:46.422Z,25.90
2018-08-19T13:00:25.988Z,26.30
2018-08-19T13:02:55.293Z,26.40
2018-08-19T13:05:24.685Z,25.60
2018-08-19T13:07:53.921Z,25.40
2018-08-19T13:10:23.462Z,25.70
2018-08-19T13:12:56.927Z,24.40
2018-08-19T13:15:28.119Z,24.60
2018-08-19T13:17:57.282Z,23.50
2018-08-19T13:20:26.735Z,24.50
2018-08-19T13:23:00.697Z,25.40
2018-08-19T13:25:30.146Z,25.90
2018-08-19T13:27:59.406Z,26.10
2018-08-19T13:30:28.665Z,25.00
2018-08-19T13:32:57.951Z,24.10
2018-08-19T13:35:27.532Z,24.30
2018-08-19T13:37:56.746Z,24.20
2018-08-19T13:40:25.827Z,23.30
2018-08-19T13:42:54.915Z,23.40
2018-08-19T13:45:26.325Z,22.70
2018-08-19T13:47:55.411Z,21.70
2018-08-19T13:50:24.544Z,21.20
2018-08-19T13:52:53.696Z,20.70
2018-08-19T13:55:22.769Z,20.70
2018-08-19T13:57:51.964Z,21.40
2018-08-19T14:00:23.533Z,20.80
2018-08-19T14:02:52.797Z,21.00
2018-08-19T14:05:21.931Z,21.10
2018-08-19T14:07:50.977Z,20.80
2018-08-19T14:10:20.073Z,19.60
2018-08-19T14:12:49.226Z,19.60
2018-08-19T14:15:18.352Z,20.00
2018-08-19T14:17:47.335Z,19.80
2018-08-19T14:20:16.434Z,20.00
2018-08-19T14:22:45.555Z,19.80
2018-08-19T14:25:14.766Z,20.10
2018-08-19T14:27:43.793Z,18.90
2018-08-19T14:30:13.490Z,19.90
2018-08-19T14:32:44.157Z,19.40
2018-08-19T14:35:13.382Z,19.30
2018-08-19T14:37:42.614Z,19.80
2018-08-19T14:40:14.489Z,19.20
2018-08-19T14:42:43.625Z,18.50
2018-08-19T14:45:12.869Z,18.90
2018-08-19T14:47:41.988Z,18.20
2018-08-19T14:50:15.193Z,18.00
2018-08-19T14:52:44.375Z,18.60
2018-08-19T14:55:13.554Z,19.00
2018-08-19T14:57:42.726Z,18.20
2018-08-19T15:00:13.721Z,18.60
2018-08-19T15:02:42.829Z,18.00
2018-08-19T15:05:15.239Z,18.00
2018-08-19T15:07:44.627Z,18.20
2018-08-19T15:10:17.907Z,17.90
2018-08-19T15:12:47.052Z,19.20
2018-08-19T15:15:16.156Z,19.60
2018-08-19T15:17:54.025Z,19.30
2018-08-19T15:20:32.062Z,19.70
2018-08-19T15:23:12.412Z,20.50
2018-08-19T15:25:41.572Z,20.00
2018-08-19T15:28:10.625Z,20.50
2018-08-19T15:30:41.542Z,20.60
2018-08-19T15:33:12.408Z,19.30
2018-08-19T15:35:41.812Z,19.90
2018-08-19T15:38:11.489Z,20.90
2018-08-19T15:40:47.141Z,19.10
2018-08-19T15:43:16.274Z,21.00
2018-08-19T15:45:45.722Z,20.50
2018-08-19T15:48:14.805Z,21.70
2018-08-19T15:50:43.893Z,22.60
2018-08-19T15:53:13.017Z,24.10
2018-08-19T15:55:42.246Z,25.30
2018-08-19T15:58:11.338Z,26.50
2018-08-19T16:00:41.894Z,28.50
2018-08-19T16:03:12.577Z,29.10
2018-08-19T16:05:41.707Z,30.40
2018-08-19T16:08:10.778Z,30.80
2018-08-19T16:10:39.821Z,32.20
2018-08-19T16:13:10.563Z,33.20
2018-08-19T16:15:39.646Z,33.30
2018-08-19T16:18:09.136Z,33.60
2018-08-19T16:20:38.414Z,34.30
2018-08-19T16:23:07.580Z,34.90
2018-08-19T16:25:36.628Z,35.80
2018-08-19T16:28:05.954Z,36.00
2018-08-19T16:30:35.055Z,36.60
2018-08-19T16:33:04.262Z,36.60
2018-08-19T16:35:33.379Z,36.40
2018-08-19T16:38:02.618Z,37.30
2018-08-19T16:40:31.811Z,38.10
2018-08-19T16:43:00.998Z,38.50
2018-08-19T16:45:30.177Z,40.00
2018-08-19T16:47:59.393Z,40.20
2018-08-19T16:50:28.571Z,41.00
2018-08-19T16:52:57.623Z,41.10
2018-08-19T16:55:26.778Z,42.00
2018-08-19T16:58:02.270Z,42.20
2018-08-19T17:00:31.462Z,42.60
2018-08-19T17:03:00.672Z,42.80
2018-08-19T17:05:32.695Z,42.70
2018-08-19T17:08:01.986Z,43.90
2018-08-19T17:10:31.186Z,43.30
2018-08-19T17:13:00.333Z,43.90
2018-08-19T17:15:29.718Z,44.40
2018-08-19T17:17:59.158Z,44.50
2018-08-19T17:20:28.227Z,45.10
2018-08-19T17:22:57.263Z,45.40
2018-08-19T17:25:26.306Z,46.00
2018-08-19T17:27:55.588Z,46.10
2018-08-19T17:30:24.659Z,47.00
2018-08-19T17:32:58.684Z,47.10
2018-08-19T17:35:28.158Z,47.60
2018-08-19T17:37:57.286Z,47.70
2018-08-19T17:40:26.354Z,47.80
2018-08-19T17:42:55.544Z,47.90
2018-08-19T17:45:24.799Z,48.40
2018-08-19T17:47:54.243Z,49.00
2018-08-19T17:50:28.275Z,49.10
2018-08-19T17:52:59.565Z,49.90
2018-08-19T17:55:28.623Z,49.70
2018-08-19T17:57:59.142Z,50.50
2018-08-19T18:00:28.186Z,50.70
2018-08-19T18:02:57.359Z,50.70
2018-08-19T18:05:26.492Z,51.20
2018-08-19T18:07:56.245Z,51.00
2018-08-19T18:10:25.437Z,51.40
2018-08-19T18:12:54.456Z,51.90
2018-08-19T18:15:23.685Z,52.10
2018-08-19T18:18:01.675Z,52.30
2018-08-19T18:20:37.066Z,52.70
2018-08-19T18:23:13.057Z,52.90
2018-08-19T18:25:42.800Z,53.30
2018-08-19T18:28:15.994Z,53.00
2018-08-19T18:30:45.897Z,53.20
2018-08-19T18:33:14.946Z,53.50
2018-08-19T18:35:44.043Z,53.60
2018-08-19T18:38:24.279Z,54.40
2018-08-19T18:40:53.278Z,54.00
2018-08-19T18:43:22.473Z,54.50
2018-08-19T18:45:51.537Z,54.40
2018-08-19T18:48:21.456Z,54.70
2018-08-19T18:50:54.731Z,55.00
2018-08-19T18:53:24.273Z,55.00
2018-08-19T18:55:53.517Z,55.90
2018-08-19T18:58:22.718Z,56.10
2018-08-19T19:00:57.002Z,56.20
2018-08-19T19:03:26.256Z,56.50
2018-08-19T19:05:55.392Z,56.90
2018-08-19T19:08:24.480Z,57.30
2018-08-19T19:10:58.865Z,57.30
2018-08-19T19:13:28.505Z,58.00
2018-08-19T19:15:57.524Z,58.30
2018-08-19T19:18:26.581Z,58.30
2018-08-19T19:21:01.504Z,58.90
2018-08-19T19:23:39.599Z,59.00
2018-08-19T19:26:09.322Z,58.90
2018-08-19T19:28:38.527Z,59.40
2018-08-19T19:31:13.378Z,59.60
2018-08-19T19:33:42.514Z,59.70
2018-08-19T19:36:16.817Z,60.30
2018-08-19T19:38:51.067Z,60.30
2018-08-19T19:41:24.994Z,60.70
2018-08-19T19:43:54.085Z,61.30
2018-08-19T19:46:23.605Z,61.80
2018-08-19T19:48:52.801Z,60.90
2018-08-19T19:51:21.901Z,60.90
2018-08-19T19:53:50.920Z,62.60
2018-08-19T19:56:20.509Z,62.10
2018-08-19T19:58:50.884Z,62.20
2018-08-19T20:01:19.994Z,62.10
2018-08-19T20:03:53.754Z,62.60
2018-08-19T20:06:23.335Z,63.90
2018-08-19T20:08:52.531Z,63.70
2018-08-19T20:11:29.401Z,64.10
2018-08-19T20:13:59.946Z,64.20
2018-08-19T20:16:28.986Z,64.30
2018-08-19T20:18:58.025Z,65.40
2018-08-19T20:21:28.396Z,65.40
2018-08-19T20:23:58.553Z,65.70
2018-08-19T20:26:28.085Z,65.60
2018-08-19T20:28:58.702Z,65.50
2018-08-19T20:31:27.917Z,65.80
2018-08-19T20:33:57.043Z,66.00
2018-08-19T20:36:26.238Z,66.20
2018-08-19T20:38:55.313Z,67.00
2018-08-19T20:41:24.376Z,67.80
2018-08-19T20:43:53.482Z,66.70
2018-08-19T20:46:22.526Z,67.50
2018-08-19T20:48:51.687Z,68.20
2018-08-19T20:51:20.709Z,69.00
2018-08-19T20:53:49.762Z,68.90
2018-08-19T20:56:18.731Z,69.40
2018-08-19T20:58:47.830Z,69.70
2018-08-19T21:01:22.104Z,69.40
2018-08-19T21:03:51.098Z,68.80
2018-08-19T21:06:20.113Z,69.70
2018-08-19T21:08:49.065Z,69.90
2018-08-19T21:11:18.112Z,70.10
2018-08-19T21:13:47.167Z,70.80
2018-08-19T21:16:16.153Z,70.90
2018-08-19T21:18:45.154Z,70.70
2018-08-19T21:21:14.990Z,70.50
2018-08-19T21:23:44.104Z,70.90
2018-08-19T21:26:13.187Z,71.30
2018-08-19T21:28:48.661Z,71.60
2018-08-19T21:31:17.985Z,71.50
2018-08-19T21:33:47.008Z,71.70
2018-08-19T21:36:16.111Z,71.20
2018-08-19T21:38:45.205Z,72.10
2018-08-19T21:41:14.244Z,72.20
2018-08-19T21:43:43.297Z,72.90
2018-08-19T21:46:12.348Z,73.30
2018-08-19T21:48:41.544Z,73.60
2018-08-19T21:51:10.584Z,74.10
2018-08-19T21:53:39.621Z,74.20
2018-08-19T21:56:08.665Z,74.40
2018-08-19T21:58:37.823Z,74.20
2018-08-19T22:01:12.117Z,73.80
2018-08-19T22:03:46.309Z,73.70
2018-08-19T22:06:15.329Z,74.40
2018-08-19T22:08:45.415Z,74.70
2018-08-19T22:11:14.427Z,74.90
2018-08-19T22:13:45.053Z,75.20
2018-08-19T22:16:14.141Z,75.10
2018-08-19T22:18:43.181Z,74.90
2018-08-19T22:21:16.565Z,75.20
2018-08-19T22:23:46.842Z,74.80
2018-08-19T22:26:17.221Z,74.90
2018-08-19T22:28:47.140Z,75.10
2018-08-19T22:31:25.792Z,75.50
2018-08-19T22:33:59.145Z,75.90
2018-08-19T22:36:28.217Z,75.80
2018-08-19T22:38:57.826Z,76.10
2018-08-19T22:41:28.484Z,75.90
2018-08-19T22:43:57.997Z,76.50
2018-08-19T22:46:27.759Z,76.30
2018-08-19T22:48:57.602Z,76.60
2018-08-19T22:51:29.856Z,76.60
2018-08-19T22:53:58.893Z,76.90
2018-08-19T22:56:27.976Z,76.80
2018-08-19T22:58:57.137Z,76.80
2018-08-19T23:01:31.365Z,77.10
2018-08-19T23:04:02.082Z,77.10
2018-08-19T23:06:31.998Z,77.10
2018-08-19T23:09:01.385Z,77.30
2018-08-19T23:11:37.083Z,77.50
2018-08-19T23:14:17.511Z,77.40
2018-08-19T23:16:46.505Z,77.20
2018-08-19T23:19:15.641Z,77.70
2018-08-19T23:21:44.745Z,78.10
2018-08-19T23:24:13.816Z,78.30
2018-08-19T23:26:42.861Z,78.90
2018-08-19T23:29:11.957Z,78.20
2018-08-19T23:31:40.973Z,78.00
2018-08-19T23:34:10.055Z,78.10
2018-08-19T23:36:39.122Z,78.10
2018-08-19T23:39:09.239Z,78.70
2018-08-19T23:41:38.252Z,79.10
2018-08-19T23:44:07.532Z,79.40
2018-08-19T23:46:36.580Z,79.70
2018-08-19T23:49:05.732Z,79.50
2018-08-19T23:51:34.716Z,79.20
2018-08-19T23:54:04.552Z,79.30
2018-08-19T23:56:33.577Z,79.70
2018-08-19T23:59:02.658Z,79.70
